sensor_id;sensor_type;location;lat;lon;timestamp;P1;durP1;ratioP1;P2;durP2;ratioP2
13309;SDS011;6723;48.256;16.402;2022-11-28T00:01:55;33.53;;;20.73;;
13309;SDS011;6723;48.256;16.402;2022-11-28T00:04:21;32.83;;;21.00;;
13309;SDS011;6723;48.256;16.402;2022-11-28T00:06:47;35.07;;;21.50;;
13309;SDS011;6723;48.256;16.402;2022-11-28T00:09:14;36.77;;;22.20;;
13309;SDS011;6723;48.256;16.402;2022-11-28T00:11:43;35.47;;;20.37;;
13309;SDS011;6723;48.256;16.402;2022-11-28T00:14:10;33.77;;;21.57;;
13309;SDS011;6723;48.256;16.402;2022-11-28T00:16:36;33.43;;;20.13;;
13309;SDS011;6723;48.256;16.402;2022-11-28T00:19:19;35.37;;;21.17;;
13309;SDS011;6723;48.256;16.402;2022-11-28T00:21:45;35.87;;;20.60;;
13309;SDS011;6723;48.256;16.402;2022-11-28T00:24:11;33.93;;;21.50;;
13309;SDS011;6723;48.256;16.402;2022-11-28T00:26:38;34.47;;;20.70;;
13309;SDS011;6723;48.256;16.402;2022-11-28T00:29:05;34.63;;;20.43;;
13309;SDS011;6723;48.256;16.402;2022-11-28T00:31:33;32.23;;;19.43;;
13309;SDS011;6723;48.256;16.402;2022-11-28T00:34:06;34.77;;;21.00;;
13309;SDS011;6723;48.256;16.402;2022-11-28T00:36:33;33.30;;;20.77;;
13309;SDS011;6723;48.256;16.402;2022-11-28T00:38:59;31.30;;;20.27;;
13309;SDS011;6723;48.256;16.402;2022-11-28T00:41:26;30.23;;;19.37;;
13309;SDS011;6723;48.256;16.402;2022-11-28T00:43:55;33.93;;;20.97;;
13309;SDS011;6723;48.256;16.402;2022-11-28T00:46:21;30.40;;;17.67;;
13309;SDS011;6723;48.256;16.402;2022-11-28T00:48:48;30.57;;;18.67;;
13309;SDS011;6723;48.256;16.402;2022-11-28T00:51:18;32.10;;;20.47;;
13309;SDS011;6723;48.256;16.402;2022-11-28T00:56:39;34.17;;;19.63;;
13309;SDS011;6723;48.256;16.402;2022-11-28T00:59:05;35.33;;;19.67;;
13309;SDS011;6723;48.256;16.402;2022-11-28T01:01:35;28.67;;;17.03;;
13309;SDS011;6723;48.256;16.402;2022-11-28T01:04:04;28.23;;;17.80;;
13309;SDS011;6723;48.256;16.402;2022-11-28T01:06:35;28.87;;;18.50;;
13309;SDS011;6723;48.256;16.402;2022-11-28T01:09:18;32.47;;;18.60;;
13309;SDS011;6723;48.256;16.402;2022-11-28T01:11:45;30.93;;;18.97;;
13309;SDS011;6723;48.256;16.402;2022-11-28T01:14:28;29.23;;;15.27;;
13309;SDS011;6723;48.256;16.402;2022-11-28T01:16:54;30.03;;;16.90;;
13309;SDS011;6723;48.256;16.402;2022-11-28T01:19:20;29.20;;;18.23;;
13309;SDS011;6723;48.256;16.402;2022-11-28T01:21:47;31.90;;;17.77;;
13309;SDS011;6723;48.256;16.402;2022-11-28T01:24:13;27.83;;;17.33;;
13309;SDS011;6723;48.256;16.402;2022-11-28T01:26:40;19.63;;;11.53;;
13309;SDS011;6723;48.256;16.402;2022-11-28T01:31:52;27.30;;;16.40;;
13309;SDS011;6723;48.256;16.402;2022-11-28T01:34:19;21.27;;;12.80;;
13309;SDS011;6723;48.256;16.402;2022-11-28T01:36:45;27.83;;;16.30;;
13309;SDS011;6723;48.256;16.402;2022-11-28T01:39:11;25.27;;;13.80;;
13309;SDS011;6723;48.256;16.402;2022-11-28T01:41:39;23.33;;;13.20;;
13309;SDS011;6723;48.256;16.402;2022-11-28T01:46:42;27.90;;;15.93;;
13309;SDS011;6723;48.256;16.402;2022-11-28T01:49:19;25.20;;;15.07;;
13309;SDS011;6723;48.256;16.402;2022-11-28T01:51:51;28.10;;;16.20;;
13309;SDS011;6723;48.256;16.402;2022-11-28T01:54:21;27.20;;;16.00;;
13309;SDS011;6723;48.256;16.402;2022-11-28T01:56:51;24.80;;;14.70;;
13309;SDS011;6723;48.256;16.402;2022-11-28T01:59:24;24.57;;;13.57;;
13309;SDS011;6723;48.256;16.402;2022-11-28T02:01:54;21.57;;;12.23;;
13309;SDS011;6723;48.256;16.402;2022-11-28T02:04:20;21.67;;;13.03;;
13309;SDS011;6723;48.256;16.402;2022-11-28T02:06:49;21.03;;;11.07;;
13309;SDS011;6723;48.256;16.402;2022-11-28T02:09:15;21.27;;;11.40;;
13309;SDS011;6723;48.256;16.402;2022-11-28T02:34:13;27.23;;;13.83;;
13309;SDS011;6723;48.256;16.402;2022-11-28T02:37:02;25.73;;;13.97;;
13309;SDS011;6723;48.256;16.402;2022-11-28T02:42:06;30.03;;;14.70;;
13309;SDS011;6723;48.256;16.402;2022-11-28T02:44:53;27.57;;;15.43;;
13309;SDS011;6723;48.256;16.402;2022-11-28T02:47:29;28.67;;;15.00;;
13309;SDS011;6723;48.256;16.402;2022-11-28T02:50:04;26.43;;;13.60;;
13309;SDS011;6723;48.256;16.402;2022-11-28T02:52:34;24.10;;;12.80;;
13309;SDS011;6723;48.256;16.402;2022-11-28T02:55:04;31.73;;;15.70;;
13309;SDS011;6723;48.256;16.402;2022-11-28T02:57:36;23.87;;;13.30;;
13309;SDS011;6723;48.256;16.402;2022-11-28T03:00:20;25.60;;;13.63;;
13309;SDS011;6723;48.256;16.402;2022-11-28T03:02:49;28.30;;;14.97;;
13309;SDS011;6723;48.256;16.402;2022-11-28T03:05:24;27.23;;;14.00;;
13309;SDS011;6723;48.256;16.402;2022-11-28T03:21:41;24.20;;;11.67;;
13309;SDS011;6723;48.256;16.402;2022-11-28T03:29:51;23.07;;;13.07;;
13309;SDS011;6723;48.256;16.402;2022-11-28T03:32:21;23.13;;;11.80;;
13309;SDS011;6723;48.256;16.402;2022-11-28T03:34:58;21.27;;;11.63;;
13309;SDS011;6723;48.256;16.402;2022-11-28T03:37:29;24.37;;;12.73;;
13309;SDS011;6723;48.256;16.402;2022-11-28T03:40:01;20.13;;;11.43;;
13309;SDS011;6723;48.256;16.402;2022-11-28T03:42:31;19.97;;;9.67;;
13309;SDS011;6723;48.256;16.402;2022-11-28T03:45:08;22.13;;;12.87;;
13309;SDS011;6723;48.256;16.402;2022-11-28T03:47:42;22.90;;;11.07;;
13309;SDS011;6723;48.256;16.402;2022-11-28T03:50:21;23.83;;;12.93;;
13309;SDS011;6723;48.256;16.402;2022-11-28T03:52:54;21.70;;;11.60;;
13309;SDS011;6723;48.256;16.402;2022-11-28T03:55:29;19.07;;;11.37;;
13309;SDS011;6723;48.256;16.402;2022-11-28T03:58:24;22.47;;;11.77;;
13309;SDS011;6723;48.256;16.402;2022-11-28T04:01:01;22.20;;;11.27;;
13309;SDS011;6723;48.256;16.402;2022-11-28T04:05:57;21.87;;;12.50;;
13309;SDS011;6723;48.256;16.402;2022-11-28T04:08:30;23.23;;;12.10;;
13309;SDS011;6723;48.256;16.402;2022-11-28T04:11:21;22.73;;;11.87;;
13309;SDS011;6723;48.256;16.402;2022-11-28T04:14:11;17.30;;;9.60;;
13309;SDS011;6723;48.256;16.402;2022-11-28T04:17:07;21.77;;;11.03;;
13309;SDS011;6723;48.256;16.402;2022-11-28T04:19:42;21.13;;;12.07;;
13309;SDS011;6723;48.256;16.402;2022-11-28T04:24:56;20.90;;;10.37;;
13309;SDS011;6723;48.256;16.402;2022-11-28T04:27:31;20.47;;;11.90;;
13309;SDS011;6723;48.256;16.402;2022-11-28T04:30:02;20.27;;;11.73;;
13309;SDS011;6723;48.256;16.402;2022-11-28T04:32:30;13.73;;;8.50;;
13309;SDS011;6723;48.256;16.402;2022-11-28T04:35:03;23.83;;;12.17;;
13309;SDS011;6723;48.256;16.402;2022-11-28T04:37:35;21.10;;;11.60;;
13309;SDS011;6723;48.256;16.402;2022-11-28T04:40:06;21.33;;;11.43;;
13309;SDS011;6723;48.256;16.402;2022-11-28T04:42:36;19.97;;;10.50;;
13309;SDS011;6723;48.256;16.402;2022-11-28T04:45:40;24.53;;;12.20;;
13309;SDS011;6723;48.256;16.402;2022-11-28T04:47:59;18.27;;;9.43;;
13309;SDS011;6723;48.256;16.402;2022-11-28T04:50:41;22.17;;;12.77;;
13309;SDS011;6723;48.256;16.402;2022-11-28T04:53:17;21.57;;;12.20;;
13309;SDS011;6723;48.256;16.402;2022-11-28T04:55:55;23.17;;;12.47;;
13309;SDS011;6723;48.256;16.402;2022-11-28T04:58:33;19.00;;;11.70;;
13309;SDS011;6723;48.256;16.402;2022-11-28T05:01:05;18.87;;;10.97;;
13309;SDS011;6723;48.256;16.402;2022-11-28T05:03:35;18.90;;;10.83;;
13309;SDS011;6723;48.256;16.402;2022-11-28T05:06:03;19.87;;;10.27;;
13309;SDS011;6723;48.256;16.402;2022-11-28T05:08:29;20.17;;;11.17;;
13309;SDS011;6723;48.256;16.402;2022-11-28T05:10:56;19.17;;;10.50;;
13309;SDS011;6723;48.256;16.402;2022-11-28T05:13:22;18.47;;;9.03;;
13309;SDS011;6723;48.256;16.402;2022-11-28T05:15:48;17.10;;;9.60;;
13309;SDS011;6723;48.256;16.402;2022-11-28T05:18:13;20.63;;;11.80;;
13309;SDS011;6723;48.256;16.402;2022-11-28T05:20:39;20.93;;;10.97;;
13309;SDS011;6723;48.256;16.402;2022-11-28T05:23:05;15.90;;;9.57;;
13309;SDS011;6723;48.256;16.402;2022-11-28T05:25:31;20.03;;;10.70;;
13309;SDS011;6723;48.256;16.402;2022-11-28T05:27:57;18.53;;;10.40;;
13309;SDS011;6723;48.256;16.402;2022-11-28T05:30:22;16.90;;;9.40;;
13309;SDS011;6723;48.256;16.402;2022-11-28T05:32:48;19.00;;;10.23;;
13309;SDS011;6723;48.256;16.402;2022-11-28T05:35:14;16.87;;;9.10;;
13309;SDS011;6723;48.256;16.402;2022-11-28T05:37:40;14.23;;;9.03;;
13309;SDS011;6723;48.256;16.402;2022-11-28T05:40:06;18.97;;;11.00;;
13309;SDS011;6723;48.256;16.402;2022-11-28T05:42:33;19.07;;;10.20;;
13309;SDS011;6723;48.256;16.402;2022-11-28T05:45:04;17.97;;;10.03;;
13309;SDS011;6723;48.256;16.402;2022-11-28T05:47:31;16.13;;;9.13;;
13309;SDS011;6723;48.256;16.402;2022-11-28T05:49:58;13.37;;;8.03;;
13309;SDS011;6723;48.256;16.402;2022-11-28T05:52:26;13.33;;;7.67;;
13309;SDS011;6723;48.256;16.402;2022-11-28T05:54:53;14.83;;;8.83;;
13309;SDS011;6723;48.256;16.402;2022-11-28T05:57:19;15.70;;;9.03;;
13309;SDS011;6723;48.256;16.402;2022-11-28T05:59:45;14.87;;;7.70;;
13309;SDS011;6723;48.256;16.402;2022-11-28T06:02:10;17.17;;;9.03;;
13309;SDS011;6723;48.256;16.402;2022-11-28T06:04:36;18.30;;;10.50;;
13309;SDS011;6723;48.256;16.402;2022-11-28T06:07:05;19.23;;;10.37;;
13309;SDS011;6723;48.256;16.402;2022-11-28T06:09:32;22.00;;;10.77;;
13309;SDS011;6723;48.256;16.402;2022-11-28T06:11:58;18.03;;;9.63;;
13309;SDS011;6723;48.256;16.402;2022-11-28T06:14:24;18.53;;;9.70;;
13309;SDS011;6723;48.256;16.402;2022-11-28T06:16:49;19.53;;;10.37;;
13309;SDS011;6723;48.256;16.402;2022-11-28T06:22:10;19.70;;;10.67;;
13309;SDS011;6723;48.256;16.402;2022-11-28T06:24:35;17.77;;;10.77;;
13309;SDS011;6723;48.256;16.402;2022-11-28T06:27:01;20.40;;;11.60;;
13309;SDS011;6723;48.256;16.402;2022-11-28T06:29:27;18.17;;;9.87;;
13309;SDS011;6723;48.256;16.402;2022-11-28T06:31:53;20.67;;;10.57;;
13309;SDS011;6723;48.256;16.402;2022-11-28T06:34:20;22.63;;;11.53;;
13309;SDS011;6723;48.256;16.402;2022-11-28T06:36:46;19.63;;;11.33;;
13309;SDS011;6723;48.256;16.402;2022-11-28T06:39:13;21.70;;;11.53;;
13309;SDS011;6723;48.256;16.402;2022-11-28T06:41:40;15.03;;;8.90;;
13309;SDS011;6723;48.256;16.402;2022-11-28T06:44:06;24.50;;;11.60;;
13309;SDS011;6723;48.256;16.402;2022-11-28T06:46:36;20.47;;;9.90;;
13309;SDS011;6723;48.256;16.402;2022-11-28T06:49:02;23.13;;;12.47;;
13309;SDS011;6723;48.256;16.402;2022-11-28T06:51:28;22.73;;;11.90;;
13309;SDS011;6723;48.256;16.402;2022-11-28T06:53:54;20.80;;;10.73;;
13309;SDS011;6723;48.256;16.402;2022-11-28T06:56:22;26.13;;;13.57;;
13309;SDS011;6723;48.256;16.402;2022-11-28T06:58:55;22.83;;;10.63;;
13309;SDS011;6723;48.256;16.402;2022-11-28T07:01:22;18.87;;;11.50;;
13309;SDS011;6723;48.256;16.402;2022-11-28T07:03:50;23.10;;;12.23;;
13309;SDS011;6723;48.256;16.402;2022-11-28T07:06:18;21.33;;;11.77;;
13309;SDS011;6723;48.256;16.402;2022-11-28T07:08:45;20.80;;;10.60;;
13309;SDS011;6723;48.256;16.402;2022-11-28T07:11:16;22.40;;;11.67;;
13309;SDS011;6723;48.256;16.402;2022-11-28T07:13:46;17.07;;;10.23;;
13309;SDS011;6723;48.256;16.402;2022-11-28T07:19:13;19.93;;;10.93;;
13309;SDS011;6723;48.256;16.402;2022-11-28T07:21:40;22.20;;;10.83;;
13309;SDS011;6723;48.256;16.402;2022-11-28T07:24:06;20.07;;;11.57;;
13309;SDS011;6723;48.256;16.402;2022-11-28T07:26:32;21.30;;;12.03;;
13309;SDS011;6723;48.256;16.402;2022-11-28T07:28:59;24.87;;;13.30;;
13309;SDS011;6723;48.256;16.402;2022-11-28T07:31:25;25.30;;;11.83;;
13309;SDS011;6723;48.256;16.402;2022-11-28T07:33:55;20.37;;;11.67;;
13309;SDS011;6723;48.256;16.402;2022-11-28T07:36:22;21.97;;;11.50;;
13309;SDS011;6723;48.256;16.402;2022-11-28T07:38:50;19.33;;;9.73;;
13309;SDS011;6723;48.256;16.402;2022-11-28T07:41:17;17.77;;;11.10;;
13309;SDS011;6723;48.256;16.402;2022-11-28T07:43:44;17.57;;;10.90;;
13309;SDS011;6723;48.256;16.402;2022-11-28T07:46:12;15.30;;;8.83;;
13309;SDS011;6723;48.256;16.402;2022-11-28T07:48:40;21.47;;;12.37;;
13309;SDS011;6723;48.256;16.402;2022-11-28T07:51:06;20.20;;;11.20;;
13309;SDS011;6723;48.256;16.402;2022-11-28T07:53:34;19.57;;;10.80;;
13309;SDS011;6723;48.256;16.402;2022-11-28T07:56:17;25.43;;;12.90;;
13309;SDS011;6723;48.256;16.402;2022-11-28T07:58:45;20.37;;;11.43;;
13309;SDS011;6723;48.256;16.402;2022-11-28T08:01:22;17.33;;;9.97;;
13309;SDS011;6723;48.256;16.402;2022-11-28T08:03:49;22.03;;;12.97;;
13309;SDS011;6723;48.256;16.402;2022-11-28T08:06:16;19.93;;;11.53;;
13309;SDS011;6723;48.256;16.402;2022-11-28T08:08:44;20.63;;;9.80;;
13309;SDS011;6723;48.256;16.402;2022-11-28T08:11:11;19.00;;;11.40;;
13309;SDS011;6723;48.256;16.402;2022-11-28T08:13:38;20.63;;;12.37;;
13309;SDS011;6723;48.256;16.402;2022-11-28T08:16:05;20.27;;;10.23;;
13309;SDS011;6723;48.256;16.402;2022-11-28T08:18:33;20.93;;;10.67;;
13309;SDS011;6723;48.256;16.402;2022-11-28T08:21:07;16.00;;;10.30;;
13309;SDS011;6723;48.256;16.402;2022-11-28T08:23:33;18.43;;;10.40;;
13309;SDS011;6723;48.256;16.402;2022-11-28T08:26:04;19.97;;;10.67;;
13309;SDS011;6723;48.256;16.402;2022-11-28T08:28:31;14.83;;;8.67;;
13309;SDS011;6723;48.256;16.402;2022-11-28T08:30:57;20.03;;;11.47;;
13309;SDS011;6723;48.256;16.402;2022-11-28T08:33:26;16.87;;;9.77;;
13309;SDS011;6723;48.256;16.402;2022-11-28T08:35:52;21.53;;;11.60;;
13309;SDS011;6723;48.256;16.402;2022-11-28T08:38:18;20.83;;;10.77;;
13309;SDS011;6723;48.256;16.402;2022-11-28T08:40:44;19.33;;;9.03;;
13309;SDS011;6723;48.256;16.402;2022-11-28T08:43:10;18.33;;;11.23;;
13309;SDS011;6723;48.256;16.402;2022-11-28T08:45:36;16.43;;;8.57;;
13309;SDS011;6723;48.256;16.402;2022-11-28T08:48:02;19.53;;;11.50;;
13309;SDS011;6723;48.256;16.402;2022-11-28T08:50:28;17.87;;;9.23;;
13309;SDS011;6723;48.256;16.402;2022-11-28T08:52:54;21.13;;;10.40;;
13309;SDS011;6723;48.256;16.402;2022-11-28T08:55:20;18.83;;;10.53;;
13309;SDS011;6723;48.256;16.402;2022-11-28T08:57:46;17.67;;;11.00;;
13309;SDS011;6723;48.256;16.402;2022-11-28T09:00:12;18.47;;;10.47;;
13309;SDS011;6723;48.256;16.402;2022-11-28T09:02:51;19.87;;;10.57;;
13309;SDS011;6723;48.256;16.402;2022-11-28T09:05:17;18.40;;;11.30;;
13309;SDS011;6723;48.256;16.402;2022-11-28T09:07:43;19.77;;;11.23;;
13309;SDS011;6723;48.256;16.402;2022-11-28T09:10:09;16.97;;;8.87;;
13309;SDS011;6723;48.256;16.402;2022-11-28T09:12:35;16.23;;;9.77;;
13309;SDS011;6723;48.256;16.402;2022-11-28T09:15:00;19.07;;;10.53;;
13309;SDS011;6723;48.256;16.402;2022-11-28T09:17:26;14.70;;;9.40;;
13309;SDS011;6723;48.256;16.402;2022-11-28T09:19:52;18.53;;;10.23;;
13309;SDS011;6723;48.256;16.402;2022-11-28T09:22:17;16.90;;;10.03;;
13309;SDS011;6723;48.256;16.402;2022-11-28T09:24:43;16.80;;;9.53;;
13309;SDS011;6723;48.256;16.402;2022-11-28T09:27:09;15.47;;;9.70;;
13309;SDS011;6723;48.256;16.402;2022-11-28T09:29:46;18.17;;;11.20;;
13309;SDS011;6723;48.256;16.402;2022-11-28T09:32:12;15.60;;;9.87;;
13309;SDS011;6723;48.256;16.402;2022-11-28T09:34:37;14.67;;;9.10;;
13309;SDS011;6723;48.256;16.402;2022-11-28T09:37:03;16.93;;;10.30;;
13309;SDS011;6723;48.256;16.402;2022-11-28T09:39:29;21.27;;;9.20;;
13309;SDS011;6723;48.256;16.402;2022-11-28T09:42:13;12.67;;;8.33;;
13309;SDS011;6723;48.256;16.402;2022-11-28T09:45:00;18.80;;;10.50;;
13309;SDS011;6723;48.256;16.402;2022-11-28T09:47:34;18.53;;;10.93;;
13309;SDS011;6723;48.256;16.402;2022-11-28T09:50:12;21.90;;;11.23;;
13309;SDS011;6723;48.256;16.402;2022-11-28T09:52:45;17.43;;;10.17;;
13309;SDS011;6723;48.256;16.402;2022-11-28T09:57:44;18.77;;;10.30;;
13309;SDS011;6723;48.256;16.402;2022-11-28T10:00:19;14.77;;;9.17;;
13309;SDS011;6723;48.256;16.402;2022-11-28T10:06:04;17.13;;;9.90;;
13309;SDS011;6723;48.256;16.402;2022-11-28T10:19:45;16.73;;;9.23;;
13309;SDS011;6723;48.256;16.402;2022-11-28T10:22:18;16.10;;;10.80;;
13309;SDS011;6723;48.256;16.402;2022-11-28T10:24:50;16.47;;;9.57;;
13309;SDS011;6723;48.256;16.402;2022-11-28T10:27:20;15.30;;;9.10;;
13309;SDS011;6723;48.256;16.402;2022-11-28T10:32:52;16.03;;;9.67;;
13309;SDS011;6723;48.256;16.402;2022-11-28T10:35:41;16.17;;;9.30;;
13309;SDS011;6723;48.256;16.402;2022-11-28T10:38:12;15.60;;;8.87;;
13309;SDS011;6723;48.256;16.402;2022-11-28T10:40:49;16.17;;;8.90;;
13309;SDS011;6723;48.256;16.402;2022-11-28T10:56:29;15.53;;;9.03;;
13309;SDS011;6723;48.256;16.402;2022-11-28T11:02:20;13.67;;;8.07;;
13309;SDS011;6723;48.256;16.402;2022-11-28T11:04:54;14.33;;;8.40;;
13309;SDS011;6723;48.256;16.402;2022-11-28T11:07:30;13.90;;;8.90;;
13309;SDS011;6723;48.256;16.402;2022-11-28T11:10:17;17.20;;;7.93;;
13309;SDS011;6723;48.256;16.402;2022-11-28T11:12:45;12.67;;;8.43;;
13309;SDS011;6723;48.256;16.402;2022-11-28T11:17:45;15.87;;;7.80;;
13309;SDS011;6723;48.256;16.402;2022-11-28T11:22:59;16.60;;;9.33;;
13309;SDS011;6723;48.256;16.402;2022-11-28T11:25:27;14.43;;;9.40;;
13309;SDS011;6723;48.256;16.402;2022-11-28T11:27:56;15.47;;;8.93;;
13309;SDS011;6723;48.256;16.402;2022-11-28T11:32:57;14.77;;;8.33;;
13309;SDS011;6723;48.256;16.402;2022-11-28T11:35:26;13.83;;;8.67;;
13309;SDS011;6723;48.256;16.402;2022-11-28T11:37:56;15.63;;;9.70;;
13309;SDS011;6723;48.256;16.402;2022-11-28T11:40:58;12.70;;;7.93;;
13309;SDS011;6723;48.256;16.402;2022-11-28T11:43:53;15.47;;;9.40;;
13309;SDS011;6723;48.256;16.402;2022-11-28T11:46:19;14.80;;;8.00;;
13309;SDS011;6723;48.256;16.402;2022-11-28T11:48:46;15.03;;;8.57;;
13309;SDS011;6723;48.256;16.402;2022-11-28T11:51:21;14.60;;;7.70;;
13309;SDS011;6723;48.256;16.402;2022-11-28T11:53:48;16.67;;;8.53;;
13309;SDS011;6723;48.256;16.402;2022-11-28T11:56:29;16.90;;;10.50;;
13309;SDS011;6723;48.256;16.402;2022-11-28T11:58:59;13.43;;;7.23;;
13309;SDS011;6723;48.256;16.402;2022-11-28T12:01:27;16.83;;;9.90;;
13309;SDS011;6723;48.256;16.402;2022-11-28T12:04:03;18.07;;;9.20;;
13309;SDS011;6723;48.256;16.402;2022-11-28T12:06:33;15.53;;;9.13;;
13309;SDS011;6723;48.256;16.402;2022-11-28T12:09:09;17.33;;;9.37;;
13309;SDS011;6723;48.256;16.402;2022-11-28T12:11:59;14.90;;;8.07;;
13309;SDS011;6723;48.256;16.402;2022-11-28T12:14:32;15.80;;;8.43;;
13309;SDS011;6723;48.256;16.402;2022-11-28T12:17:13;13.47;;;8.57;;
13309;SDS011;6723;48.256;16.402;2022-11-28T12:20:00;18.77;;;10.43;;
13309;SDS011;6723;48.256;16.402;2022-11-28T12:22:48;16.93;;;10.60;;
13309;SDS011;6723;48.256;16.402;2022-11-28T12:35:42;17.80;;;10.33;;
13309;SDS011;6723;48.256;16.402;2022-11-28T12:41:20;18.23;;;9.63;;
13309;SDS011;6723;48.256;16.402;2022-11-28T13:00:41;19.40;;;11.67;;
13309;SDS011;6723;48.256;16.402;2022-11-28T13:03:23;15.50;;;8.10;;
13309;SDS011;6723;48.256;16.402;2022-11-28T13:11:54;16.63;;;9.50;;
13309;SDS011;6723;48.256;16.402;2022-11-28T13:29:03;17.17;;;9.23;;
13309;SDS011;6723;48.256;16.402;2022-11-28T13:31:43;15.23;;;8.67;;
13309;SDS011;6723;48.256;16.402;2022-11-28T13:34:21;21.33;;;10.90;;
13309;SDS011;6723;48.256;16.402;2022-11-28T13:36:59;17.70;;;9.80;;
13309;SDS011;6723;48.256;16.402;2022-11-28T13:39:41;21.37;;;10.23;;
13309;SDS011;6723;48.256;16.402;2022-11-28T13:45:00;19.00;;;10.47;;
13309;SDS011;6723;48.256;16.402;2022-11-28T13:47:53;14.70;;;8.90;;
13309;SDS011;6723;48.256;16.402;2022-11-28T13:53:00;18.23;;;10.37;;
13309;SDS011;6723;48.256;16.402;2022-11-28T13:55:36;20.57;;;10.87;;
13309;SDS011;6723;48.256;16.402;2022-11-28T13:58:18;18.60;;;11.47;;
13309;SDS011;6723;48.256;16.402;2022-11-28T14:03:47;21.53;;;11.10;;
13309;SDS011;6723;48.256;16.402;2022-11-28T14:06:22;15.83;;;9.80;;
13309;SDS011;6723;48.256;16.402;2022-11-28T14:25:32;20.47;;;12.47;;
13309;SDS011;6723;48.256;16.402;2022-11-28T14:28:04;22.13;;;12.20;;
13309;SDS011;6723;48.256;16.402;2022-11-28T14:30:41;23.67;;;12.30;;
13309;SDS011;6723;48.256;16.402;2022-11-28T14:41:00;17.93;;;9.87;;
13309;SDS011;6723;48.256;16.402;2022-11-28T14:48:40;21.67;;;11.03;;
13309;SDS011;6723;48.256;16.402;2022-11-28T14:56:46;19.17;;;10.50;;
13309;SDS011;6723;48.256;16.402;2022-11-28T14:59:12;18.23;;;8.80;;
13309;SDS011;6723;48.256;16.402;2022-11-28T15:13:33;20.53;;;10.77;;
13309;SDS011;6723;48.256;16.402;2022-11-28T15:16:19;21.17;;;10.83;;
13309;SDS011;6723;48.256;16.402;2022-11-28T15:18:48;18.97;;;10.83;;
13309;SDS011;6723;48.256;16.402;2022-11-28T15:21:18;24.00;;;14.13;;
13309;SDS011;6723;48.256;16.402;2022-11-28T15:23:46;18.80;;;10.53;;
13309;SDS011;6723;48.256;16.402;2022-11-28T15:26:17;20.63;;;10.93;;
13309;SDS011;6723;48.256;16.402;2022-11-28T15:29:36;22.40;;;12.60;;
13309;SDS011;6723;48.256;16.402;2022-11-28T15:31:47;22.33;;;12.43;;
13309;SDS011;6723;48.256;16.402;2022-11-28T15:34:28;20.97;;;13.20;;
13309;SDS011;6723;48.256;16.402;2022-11-28T15:36:58;22.50;;;12.93;;
13309;SDS011;6723;48.256;16.402;2022-11-28T15:42:00;20.30;;;11.90;;
13309;SDS011;6723;48.256;16.402;2022-11-28T15:44:27;23.17;;;13.77;;
13309;SDS011;6723;48.256;16.402;2022-11-28T15:46:54;21.27;;;12.37;;
13309;SDS011;6723;48.256;16.402;2022-11-28T15:51:51;20.43;;;12.50;;
13309;SDS011;6723;48.256;16.402;2022-11-28T15:54:37;23.37;;;12.83;;
13309;SDS011;6723;48.256;16.402;2022-11-28T15:57:18;25.77;;;13.90;;
13309;SDS011;6723;48.256;16.402;2022-11-28T15:59:47;24.57;;;13.87;;
13309;SDS011;6723;48.256;16.402;2022-11-28T16:05:12;23.83;;;13.30;;
13309;SDS011;6723;48.256;16.402;2022-11-28T16:07:48;25.23;;;14.23;;
13309;SDS011;6723;48.256;16.402;2022-11-28T16:12:55;21.27;;;12.83;;
13309;SDS011;6723;48.256;16.402;2022-11-28T16:15:27;26.10;;;14.30;;
13309;SDS011;6723;48.256;16.402;2022-11-28T16:17:57;25.50;;;14.83;;
13309;SDS011;6723;48.256;16.402;2022-11-28T16:20:26;24.83;;;14.30;;
13309;SDS011;6723;48.256;16.402;2022-11-28T16:23:00;23.87;;;14.77;;
13309;SDS011;6723;48.256;16.402;2022-11-28T16:25:35;26.90;;;14.50;;
13309;SDS011;6723;48.256;16.402;2022-11-28T16:28:02;27.03;;;14.43;;
13309;SDS011;6723;48.256;16.402;2022-11-28T16:30:36;22.97;;;14.83;;
13309;SDS011;6723;48.256;16.402;2022-11-28T16:36:08;23.63;;;14.30;;
13309;SDS011;6723;48.256;16.402;2022-11-28T16:38:40;24.30;;;14.13;;
13309;SDS011;6723;48.256;16.402;2022-11-28T16:41:17;25.23;;;14.60;;
13309;SDS011;6723;48.256;16.402;2022-11-28T16:46:54;25.27;;;15.27;;
13309;SDS011;6723;48.256;16.402;2022-11-28T16:52:57;22.33;;;13.13;;
13309;SDS011;6723;48.256;16.402;2022-11-28T16:54:52;22.33;;;13.87;;
13309;SDS011;6723;48.256;16.402;2022-11-28T16:57:19;23.37;;;13.23;;
13309;SDS011;6723;48.256;16.402;2022-11-28T16:59:46;24.50;;;14.03;;
13309;SDS011;6723;48.256;16.402;2022-11-28T17:02:14;23.13;;;14.23;;
13309;SDS011;6723;48.256;16.402;2022-11-28T17:04:46;22.93;;;12.20;;
13309;SDS011;6723;48.256;16.402;2022-11-28T17:07:14;16.20;;;8.63;;
13309;SDS011;6723;48.256;16.402;2022-11-28T17:09:43;22.33;;;11.87;;
13309;SDS011;6723;48.256;16.402;2022-11-28T17:12:15;24.43;;;13.90;;
13309;SDS011;6723;48.256;16.402;2022-11-28T17:14:43;20.73;;;11.37;;
13309;SDS011;6723;48.256;16.402;2022-11-28T17:17:12;23.27;;;13.43;;
13309;SDS011;6723;48.256;16.402;2022-11-28T17:19:39;19.10;;;10.93;;
13309;SDS011;6723;48.256;16.402;2022-11-28T17:22:05;20.23;;;11.70;;
13309;SDS011;6723;48.256;16.402;2022-11-28T17:24:35;18.87;;;11.17;;
13309;SDS011;6723;48.256;16.402;2022-11-28T17:27:01;21.77;;;13.07;;
13309;SDS011;6723;48.256;16.402;2022-11-28T17:29:31;14.77;;;9.70;;
13309;SDS011;6723;48.256;16.402;2022-11-28T17:31:57;19.90;;;12.03;;
13309;SDS011;6723;48.256;16.402;2022-11-28T17:34:24;18.23;;;10.13;;
13309;SDS011;6723;48.256;16.402;2022-11-28T17:36:51;17.73;;;10.83;;
13309;SDS011;6723;48.256;16.402;2022-11-28T17:39:18;17.80;;;10.77;;
13309;SDS011;6723;48.256;16.402;2022-11-28T17:41:44;18.10;;;11.83;;
13309;SDS011;6723;48.256;16.402;2022-11-28T17:44:14;15.53;;;9.70;;
13309;SDS011;6723;48.256;16.402;2022-11-28T17:46:40;19.60;;;10.93;;
13309;SDS011;6723;48.256;16.402;2022-11-28T17:49:06;19.17;;;12.10;;
13309;SDS011;6723;48.256;16.402;2022-11-28T17:51:32;20.43;;;12.53;;
13309;SDS011;6723;48.256;16.402;2022-11-28T17:53:58;21.90;;;11.70;;
13309;SDS011;6723;48.256;16.402;2022-11-28T17:56:23;19.20;;;10.73;;
13309;SDS011;6723;48.256;16.402;2022-11-28T17:58:49;14.43;;;9.13;;
13309;SDS011;6723;48.256;16.402;2022-11-28T18:01:16;21.67;;;13.40;;
13309;SDS011;6723;48.256;16.402;2022-11-28T18:03:46;16.43;;;9.87;;
13309;SDS011;6723;48.256;16.402;2022-11-28T18:06:16;23.60;;;12.47;;
13309;SDS011;6723;48.256;16.402;2022-11-28T18:08:43;17.67;;;10.00;;
13309;SDS011;6723;48.256;16.402;2022-11-28T18:11:10;19.30;;;11.03;;
13309;SDS011;6723;48.256;16.402;2022-11-28T18:13:37;20.70;;;11.53;;
13309;SDS011;6723;48.256;16.402;2022-11-28T18:16:16;21.07;;;12.30;;
13309;SDS011;6723;48.256;16.402;2022-11-28T18:18:44;21.73;;;11.37;;
13309;SDS011;6723;48.256;16.402;2022-11-28T18:21:10;18.30;;;11.40;;
13309;SDS011;6723;48.256;16.402;2022-11-28T18:23:44;21.60;;;13.80;;
13309;SDS011;6723;48.256;16.402;2022-11-28T18:26:14;23.47;;;14.33;;
13309;SDS011;6723;48.256;16.402;2022-11-28T18:28:41;22.67;;;13.73;;
13309;SDS011;6723;48.256;16.402;2022-11-28T18:31:11;16.73;;;11.27;;
13309;SDS011;6723;48.256;16.402;2022-11-28T18:33:42;22.40;;;13.30;;
13309;SDS011;6723;48.256;16.402;2022-11-28T18:38:34;25.90;;;14.87;;
13309;SDS011;6723;48.256;16.402;2022-11-28T18:41:03;21.47;;;13.27;;
13309;SDS011;6723;48.256;16.402;2022-11-28T18:43:30;22.87;;;13.27;;